Nelsonia, Virginia
Current Conditions -  °F | °C
As of 7:54 AM on Friday 19 Dec 2014 (Local Time) from KWAL Reporting Station
Scattered Clouds Scattered Clouds  
Wind Chill: 27°   Ceiling: Unl
Heat Index: 33°   Visibility: 10mi
Dew Point: 26°   Wind: 7mph
Humidity: 75%   Direction: 320°NW
Pressure: 30.14"   Gusts: NA
Location:  37.82°N, 75.59°W
Report Text: KWAL 191254Z AUTO 32006KT 10SM SCT100 01/M03 A3014 RMK AO2 SLP201 T00061033
Loading
Personal Weather Stations






























Interactive Weather Map New forecast layout! Learn more

10-Day Weather Forecast

Advertisements
Track Severe Weather on mobile